»·PEaware :: QXE2122 KMFR-KPDX

QXE2122 :: KMFR-KPDX

FLIGHT INFORMATION

Flight Status: Arrived
Operator:
Horizon Air
More flights by this operator :: More flights under this callsign
Pilot: Matthew M. (8235)
Aircraft: DEHAVILLAND DASH 8 400
(DH8D)
More flights by this aircraft type
Origin: KMFR Rogue Valley Intl-Medford
United States
Destination: KPDX Portland Intl
United States
More flights between these airports :: More routes between these airports
Route: JKSN1 OED V595 CUTTR MOXEE TMBRS2
File this flight plan on PilotEdge
Remarks:
Altitude:
(Current/Filed)
17,000ft
Speed:
(Current/Filed)
322kts
Departed: 22-Aug-22 04:03 PM
Arrived: 22-Aug-22 04:51 PM
Distance/Time
Traveled:
193nm/0:48
Distance/Time
To Go:
Arrived

Flight Plot

Page will automatically refresh every two minutes.

Flight plan parsing failed; only flown route is shown


Map Options




Map Legend


Flown Route
Filed Route
Departure Airport
Arrival Airport
Navaid (VOR, NDB)
Fix

Horizontal Profiles

Position Reports

Time Latitude Longitude Heading Altitude Ground
Speed
22-Aug-22 15:45 42.368122 -122.872359 132 1326ft 0kts
22-Aug-22 15:46 42.368122 -122.872359 132 1326ft 0kts
22-Aug-22 15:47 42.368122 -122.872359 132 1326ft 0kts
22-Aug-22 15:48 42.368122 -122.872359 132 1326ft 0kts
22-Aug-22 15:49 42.368122 -122.872359 132 1326ft 0kts
22-Aug-22 15:50 42.368122 -122.872359 132 1326ft 0kts
22-Aug-22 15:51 42.368122 -122.872359 132 1326ft 0kts
22-Aug-22 15:52 42.368122 -122.872359 132 1326ft 0kts
22-Aug-22 15:53 42.368122 -122.872359 132 1326ft 0kts
22-Aug-22 15:54 42.368122 -122.872359 132 1326ft 0kts
22-Aug-22 15:55 42.368122 -122.872359 132 1326ft 0kts
22-Aug-22 15:56 42.368122 -122.872359 132 1326ft 0kts
22-Aug-22 15:57 42.368122 -122.872359 132 1326ft 0kts
22-Aug-22 15:58 42.368122 -122.872359 132 1326ft 0kts
22-Aug-22 15:59 42.368394 -122.872628 42 1325ft 3kts
22-Aug-22 16:00 42.367834 -122.871165 158 1327ft 7kts
22-Aug-22 16:01 42.365056 -122.869704 158 1332ft 13kts
22-Aug-22 16:02 42.363538 -122.868408 69 1334ft 6kts
22-Aug-22 16:03 42.372511 -122.871953 338 1323ft 138kts
22-Aug-22 16:04 42.411561 -122.892123 337 3473ft 151kts
22-Aug-22 16:05 42.458002 -122.906487 345 4662ft 195kts
22-Aug-22 16:06 42.517717 -122.924586 346 5942ft 236kts
22-Aug-22 16:06 42.571448 -122.941345 340 7478ft 242kts
22-Aug-22 16:08 42.555925 -123.002202 158 9086ft 243kts
22-Aug-22 16:08 42.521176 -122.942028 145 10274ft 249kts
22-Aug-22 16:10 42.455282 -122.883627 108 11926ft 267kts
22-Aug-22 16:11 42.499727 -122.824201 339 13044ft 265kts
22-Aug-22 16:11 42.560048 -122.830274 17 14051ft 276kts
22-Aug-22 16:12 42.628273 -122.781030 29 15200ft 282kts
22-Aug-22 16:13 42.695017 -122.730056 2 16572ft 263kts
22-Aug-22 16:15 42.776851 -122.729963 354 17971ft 249kts
22-Aug-22 16:16 42.845672 -122.731115 354 18913ft 247kts
22-Aug-22 16:16 42.902860 -122.732065 354 19604ft 246kts
22-Aug-22 16:17 42.972356 -122.733267 354 20089ft 258kts
22-Aug-22 16:18 43.048423 -122.734505 354 20099ft 287kts
22-Aug-22 16:20 43.145620 -122.736078 355 20122ft 312kts
22-Aug-22 16:20 43.219674 -122.737249 355 20139ft 326kts
22-Aug-22 16:21 43.311819 -122.738760 355 20139ft 337kts
22-Aug-22 16:22 43.406575 -122.740325 355 20137ft 343kts
22-Aug-22 16:23 43.502355 -122.742063 355 20139ft 346kts
22-Aug-22 16:24 43.599001 -122.743699 355 20137ft 349kts
22-Aug-22 16:25 43.695850 -122.745337 355 20136ft 350kts
22-Aug-22 16:26 43.793641 -122.747002 355 20136ft 351kts
22-Aug-22 16:27 43.891138 -122.748674 355 20137ft 351kts
22-Aug-22 16:28 43.988533 -122.750344 355 20138ft 351kts
22-Aug-22 16:29 44.085461 -122.752011 355 20138ft 350kts
22-Aug-22 16:30 44.182768 -122.751223 0 20137ft 351kts
22-Aug-22 16:31 44.280143 -122.740469 0 20138ft 351kts
22-Aug-22 16:32 44.377359 -122.730714 0 20128ft 351kts
22-Aug-22 16:33 44.474568 -122.721079 0 20105ft 350kts
22-Aug-22 16:34 44.571917 -122.711412 0 20100ft 350kts
22-Aug-22 16:35 44.668928 -122.701751 0 18638ft 348kts
22-Aug-22 16:36 44.765446 -122.692070 0 16902ft 350kts
22-Aug-22 16:37 44.862196 -122.682328 1 15160ft 350kts
22-Aug-22 16:38 44.956942 -122.672797 2 13369ft 329kts
22-Aug-22 16:39 45.044531 -122.663973 2 11775ft 304kts
22-Aug-22 16:40 45.125945 -122.655683 2 10312ft 284kts
22-Aug-22 16:41 45.197734 -122.613476 24 9491ft 290kts
22-Aug-22 16:42 45.271510 -122.561709 24 8901ft 296kts
22-Aug-22 16:43 45.339290 -122.513653 24 7893ft 255kts
22-Aug-22 16:44 45.398540 -122.470648 24 6775ft 226kts
22-Aug-22 16:45 45.453413 -122.430012 20 4983ft 218kts
22-Aug-22 16:46 45.511915 -122.429451 354 3218ft 210kts
22-Aug-22 16:47 45.540536 -122.474002 279 1750ft 163kts
22-Aug-22 16:48 45.558486 -122.525918 298 985ft 142kts
22-Aug-22 16:49 45.576880 -122.574587 301 219ft 134kts
22-Aug-22 16:50 45.587172 -122.600678 306 27ft 24kts
22-Aug-22 16:51 45.588868 -122.599986 118 27ft 21kts
22-Aug-22 16:52 45.587499 -122.594373 53 27ft 0kts

Navigation Log

Ident Type
Flight plan parsing failed, navigation log unavailable